Time;durP1;ratioP1;P1;durP2;ratioP2;P2;SDS_P1;SDS_P2;PMS_P1;PMS_P2;Temp;Humidity;BMP_temperature;BMP_pressure;BME280_temperature;BME280_humidity;BME280_pressure;Samples;Min_cycle;Max_cycle;Signal;HPM_P1;HPM_P2
2021/11/24 00:01:59;;;;;;;49.08;17.27;;;;;;;;;;5069437;28;20068;-56
2021/11/24 00:04:25;;;;;;;35.45;16.23;;;;;;;;;;5071239;28;20047;-57
2021/11/24 00:06:52;;;;;;;57.63;18.80;;;;;;;;;;5070517;28;20045;-56
2021/11/24 00:09:18;;;;;;;54.88;19.23;;;;;;;;;;5069468;28;20053;-57
2021/11/24 00:11:45;;;;;;;47.83;15.50;;;;;;;;;;5071398;28;20040;-57
2021/11/24 00:14:11;;;;;;;33.42;15.40;;;;;;;;;;5070300;28;20083;-57
2021/11/24 00:16:38;;;;;;;55.63;16.30;;;;;;;;;;5070312;28;20069;-57
2021/11/24 00:19:04;;;;;;;47.55;18.05;;;;;;;;;;5062580;28;20043;-55
2021/11/24 00:21:30;;;;;;;49.20;18.33;;;;;;;;;;5070717;28;20072;-55
2021/11/24 00:23:57;;;;;;;41.78;15.40;;;;;;;;;;5072474;28;20048;-57
2021/11/24 00:26:23;;;;;;;35.38;14.25;;;;;;;;;;5069990;28;20045;-56
2021/11/24 00:28:49;;;;;;;47.55;17.02;;;;;;;;;;5070242;28;20056;-56
2021/11/24 00:31:16;;;;;;;48.13;16.35;;;;;;;;;;5070497;28;20050;-57
2021/11/24 00:33:42;;;;;;;45.00;15.45;;;;;;;;;;5070309;28;20447;-55
2021/11/24 00:36:09;;;;;;;50.97;17.15;;;;;;;;;;5070920;28;20084;-56
2021/11/24 00:38:35;;;;;;;34.90;14.35;;;;;;;;;;5071661;28;20058;-57
2021/11/24 00:41:01;;;;;;;38.70;12.70;;;;;;;;;;5069951;28;20049;-56
2021/11/24 00:43:28;;;;;;;41.60;12.82;;;;;;;;;;5069258;28;20079;-54
2021/11/24 00:45:54;;;;;;;37.60;14.80;;;;;;;;;;5070062;28;20094;-56
2021/11/24 00:48:21;;;;;;;43.85;14.80;;;;;;;;;;5069973;28;20041;-56
2021/11/24 00:50:48;;;;;;;40.63;14.88;;;;;;;;;;5071566;28;20106;-57
2021/11/24 00:53:14;;;;;;;40.97;13.82;;;;;;;;;;5070041;28;20058;-56
2021/11/24 00:55:41;;;;;;;31.85;10.90;;;;;;;;;;5069825;28;20044;-56
2021/11/24 00:58:07;;;;;;;37.40;14.35;;;;;;;;;;5069980;28;20483;-57
2021/11/24 01:00:34;;;;;;;42.10;14.05;;;;;;;;;;5070114;28;20083;-57
2021/11/24 01:03:00;;;;;;;35.55;12.80;;;;;;;;;;5071672;28;20087;-56
2021/11/24 01:05:29;;;;;;;41.22;13.68;;;;;;;;;;5071242;28;20096;-56
2021/11/24 01:07:55;;;;;;;33.85;12.35;;;;;;;;;;5069946;28;20044;-56
2021/11/24 01:10:21;;;;;;;26.83;10.68;;;;;;;;;;5069837;28;20064;-56
2021/11/24 01:12:48;;;;;;;29.17;10.07;;;;;;;;;;5069908;28;20075;-56
2021/11/24 01:15:15;;;;;;;35.33;12.40;;;;;;;;;;5070237;28;20071;-56
2021/11/24 01:17:42;;;;;;;20.10;7.65;;;;;;;;;;5071529;28;20063;-56
2021/11/24 01:20:08;;;;;;;27.30;11.07;;;;;;;;;;5069683;28;20089;-56
2021/11/24 01:22:35;;;;;;;41.47;10.27;;;;;;;;;;5068446;28;20045;-54
2021/11/24 01:25:01;;;;;;;29.60;10.65;;;;;;;;;;5069546;28;20040;-54
2021/11/24 01:27:29;;;;;;;39.03;12.80;;;;;;;;;;5070003;28;20083;-55
2021/11/24 01:29:55;;;;;;;40.88;13.50;;;;;;;;;;5067580;28;20492;-55
2021/11/24 01:32:21;;;;;;;24.75;11.70;;;;;;;;;;5071572;28;20561;-55
2021/11/24 01:34:48;;;;;;;38.63;13.93;;;;;;;;;;5073881;28;20072;-55
2021/11/24 01:37:14;;;;;;;30.42;12.40;;;;;;;;;;5073388;28;20044;-55
2021/11/24 01:39:41;;;;;;;36.28;12.52;;;;;;;;;;5073206;28;20040;-55
2021/11/24 01:42:07;;;;;;;29.85;10.40;;;;;;;;;;5074422;28;20064;-55
2021/11/24 01:44:34;;;;;;;20.50;9.68;;;;;;;;;;5074485;28;20044;-55
2021/11/24 01:47:01;;;;;;;36.65;12.75;;;;;;;;;;5073575;28;20049;-55
2021/11/24 01:49:28;;;;;;;33.38;13.13;;;;;;;;;;5073690;28;20573;-55
2021/11/24 01:51:58;;;;;;;27.92;10.38;;;;;;;;;;5073660;28;20047;-54
2021/11/24 01:54:25;;;;;;;26.98;11.32;;;;;;;;;;5073450;28;20040;-55
2021/11/24 01:56:52;;;;;;;28.80;11.80;;;;;;;;;;5075591;28;20056;-55
2021/11/24 01:59:18;;;;;;;37.03;11.98;;;;;;;;;;5073568;28;20051;-55
2021/11/24 02:01:45;;;;;;;31.92;12.38;;;;;;;;;;5072254;28;20118;-55
2021/11/24 02:04:13;;;;;;;33.70;12.43;;;;;;;;;;5073811;28;20052;-55
2021/11/24 02:06:40;;;;;;;34.53;14.07;;;;;;;;;;5072184;28;20046;-55
2021/11/24 02:09:07;;;;;;;30.40;13.65;;;;;;;;;;5074149;28;20079;-54
2021/11/24 02:11:38;;;;;;;32.95;13.40;;;;;;;;;;5074583;28;20075;-55
2021/11/24 02:14:08;;;;;;;43.67;13.48;;;;;;;;;;5073310;28;20052;-55
2021/11/24 02:16:51;;;;;;;30.38;11.48;;;;;;;;;;5073267;28;20044;-55
2021/11/24 02:19:18;;;;;;;27.05;11.95;;;;;;;;;;5073200;28;20048;-55
2021/11/24 02:21:46;;;;;;;36.58;14.02;;;;;;;;;;5073161;28;20496;-55
2021/11/24 02:24:12;;;;;;;21.90;10.80;;;;;;;;;;5073335;28;20048;-55
2021/11/24 02:26:39;;;;;;;38.05;15.48;;;;;;;;;;5073038;28;20576;-55
2021/11/24 02:29:05;;;;;;;21.85;9.50;;;;;;;;;;5072949;28;20084;-55
2021/11/24 02:31:32;;;;;;;23.02;11.77;;;;;;;;;;5072890;28;20454;-55
2021/11/24 02:33:58;;;;;;;33.72;13.30;;;;;;;;;;5073164;28;20377;-55
2021/11/24 02:36:26;;;;;;;43.25;13.18;;;;;;;;;;5072992;28;20427;-54
2021/11/24 02:38:52;;;;;;;46.08;15.65;;;;;;;;;;5074575;28;20119;-55
2021/11/24 02:41:19;;;;;;;48.13;13.48;;;;;;;;;;5072869;28;20447;-55
2021/11/24 02:43:45;;;;;;;10.80;6.53;;;;;;;;;;5071480;28;20461;-55
2021/11/24 02:46:12;;;;;;;47.22;16.08;;;;;;;;;;5071380;28;20072;-55
2021/11/24 02:48:38;;;;;;;37.90;13.20;;;;;;;;;;5072596;28;20044;-55
2021/11/24 02:51:05;;;;;;;44.50;14.73;;;;;;;;;;5073994;28;20079;-55
2021/11/24 02:53:36;;;;;;;34.00;14.38;;;;;;;;;;5073291;28;20044;-55
2021/11/24 02:56:03;;;;;;;33.70;10.82;;;;;;;;;;5072569;28;20068;-55
2021/11/24 02:58:29;;;;;;;37.00;13.32;;;;;;;;;;5072397;28;20109;-55
2021/11/24 03:00:57;;;;;;;43.78;16.20;;;;;;;;;;5072444;28;20049;-55
2021/11/24 03:03:23;;;;;;;30.00;12.27;;;;;;;;;;5072557;28;20079;-55
2021/11/24 03:05:50;;;;;;;46.58;15.25;;;;;;;;;;5074101;28;20423;-55
2021/11/24 03:08:17;;;;;;;36.63;13.10;;;;;;;;;;5072240;28;20059;-56
2021/11/24 03:10:44;;;;;;;45.08;14.93;;;;;;;;;;5072389;28;20044;-55
2021/11/24 03:13:11;;;;;;;42.97;13.93;;;;;;;;;;5072024;28;20048;-55
2021/11/24 03:15:37;;;;;;;53.83;19.10;;;;;;;;;;5071553;28;20045;-56
2021/11/24 03:18:04;;;;;;;45.00;15.55;;;;;;;;;;5072946;28;20141;-55
2021/11/24 03:20:30;;;;;;;33.63;13.57;;;;;;;;;;5070842;28;20086;-56
2021/11/24 03:22:58;;;;;;;48.20;13.27;;;;;;;;;;5071783;28;20064;-55
2021/11/24 03:25:24;;;;;;;27.55;11.32;;;;;;;;;;5070043;28;20040;-55
2021/11/24 03:27:51;;;;;;;43.08;14.15;;;;;;;;;;5071351;28;20072;-56
2021/11/24 03:30:19;;;;;;;32.20;12.73;;;;;;;;;;5071358;28;20416;-55
2021/11/24 03:32:46;;;;;;;46.10;13.85;;;;;;;;;;5073644;28;20473;-55
2021/11/24 03:35:14;;;;;;;39.88;15.05;;;;;;;;;;5070770;28;20059;-55
2021/11/24 03:37:40;;;;;;;44.83;14.38;;;;;;;;;;5071565;28;20045;-55
2021/11/24 03:40:08;;;;;;;46.55;14.93;;;;;;;;;;5071669;28;20412;-54
2021/11/24 03:42:35;;;;;;;47.22;14.30;;;;;;;;;;5071569;28;20084;-54
2021/11/24 03:45:03;;;;;;;36.25;11.75;;;;;;;;;;5073043;28;20070;-54
2021/11/24 03:47:29;;;;;;;32.30;12.85;;;;;;;;;;5071026;28;20102;-55
2021/11/24 03:49:55;;;;;;;38.00;13.68;;;;;;;;;;5071186;28;20055;-57
2021/11/24 03:52:22;;;;;;;48.60;17.92;;;;;;;;;;5071275;28;20040;-57
2021/11/24 03:54:48;;;;;;;40.80;13.23;;;;;;;;;;5069912;28;20040;-57
2021/11/24 03:57:14;;;;;;;39.85;13.68;;;;;;;;;;5072292;28;20052;-57
2021/11/24 03:59:41;;;;;;;37.47;13.88;;;;;;;;;;5071404;28;20040;-57
2021/11/24 04:02:07;;;;;;;40.95;13.23;;;;;;;;;;5071242;28;20508;-58
2021/11/24 04:04:34;;;;;;;41.22;14.18;;;;;;;;;;5069674;28;20141;-57
2021/11/24 04:07:01;;;;;;;51.25;16.33;;;;;;;;;;5071147;28;20514;-57
2021/11/24 04:09:28;;;;;;;45.78;15.23;;;;;;;;;;5054356;28;20036;-57
2021/11/24 04:11:54;;;;;;;48.42;16.05;;;;;;;;;;5072749;28;20095;-57
2021/11/24 04:14:21;;;;;;;45.15;14.55;;;;;;;;;;5071010;28;20148;-57
2021/11/24 04:16:47;;;;;;;43.30;14.05;;;;;;;;;;5070766;28;20048;-57
2021/11/24 04:19:14;;;;;;;47.15;14.48;;;;;;;;;;5070805;28;20044;-57
2021/11/24 04:21:40;;;;;;;28.60;11.32;;;;;;;;;;5071157;28;20043;-57
2021/11/24 04:24:06;;;;;;;38.05;13.20;;;;;;;;;;5072264;28;20051;-57
2021/11/24 04:26:33;;;;;;;40.67;13.77;;;;;;;;;;5072015;28;20060;-57
2021/11/24 04:28:59;;;;;;;43.72;13.55;;;;;;;;;;5070756;28;20055;-57
2021/11/24 04:31:25;;;;;;;35.78;12.48;;;;;;;;;;5070763;28;20417;-57
2021/11/24 04:33:52;;;;;;;39.55;12.73;;;;;;;;;;5066394;28;20411;-57
2021/11/24 04:36:18;;;;;;;39.67;14.55;;;;;;;;;;5055103;28;20082;-58
2021/11/24 04:38:44;;;;;;;45.95;14.07;;;;;;;;;;5071421;28;20051;-57
2021/11/24 04:41:11;;;;;;;35.53;13.60;;;;;;;;;;5070752;28;20044;-57
2021/11/24 04:43:46;;;;;;;44.15;17.73;;;;;;;;;;5069276;28;20055;-57
2021/11/24 04:46:14;;;;;;;32.33;13.48;;;;;;;;;;5070810;28;20044;-57
2021/11/24 04:48:41;;;;;;;39.08;13.68;;;;;;;;;;5065751;28;20408;-57
2021/11/24 04:51:07;;;;;;;33.70;11.55;;;;;;;;;;5059940;28;20055;-57
2021/11/24 04:53:34;;;;;;;39.92;14.20;;;;;;;;;;5070443;28;20125;-57
2021/11/24 04:56:00;;;;;;;27.17;11.02;;;;;;;;;;5070435;28;20048;-58
2021/11/24 04:58:27;;;;;;;34.95;14.82;;;;;;;;;;5060839;28;20472;-57
2021/11/24 05:00:54;;;;;;;31.27;11.85;;;;;;;;;;5067316;28;20137;-57
2021/11/24 05:03:21;;;;;;;43.05;13.73;;;;;;;;;;5062025;28;20059;-57
2021/11/24 05:05:47;;;;;;;35.25;12.82;;;;;;;;;;5067461;28;20063;-57
2021/11/24 05:08:13;;;;;;;36.55;13.90;;;;;;;;;;5069259;28;20411;-57
2021/11/24 05:10:40;;;;;;;38.97;13.95;;;;;;;;;;5069815;28;20556;-57
2021/11/24 05:13:07;;;;;;;36.90;14.23;;;;;;;;;;5074148;28;20083;-57
2021/11/24 05:15:36;;;;;;;33.42;11.75;;;;;;;;;;5074456;28;20133;-57
2021/11/24 05:18:05;;;;;;;34.60;12.48;;;;;;;;;;5071153;28;20067;-57
2021/11/24 05:20:33;;;;;;;37.22;13.48;;;;;;;;;;5069633;28;20060;-57
2021/11/24 05:23:03;;;;;;;32.65;12.55;;;;;;;;;;5070882;28;20081;-57
2021/11/24 05:25:30;;;;;;;33.75;11.85;;;;;;;;;;5064862;28;20467;-57
2021/11/24 05:27:56;;;;;;;33.80;13.13;;;;;;;;;;5072126;28;20045;-57
2021/11/24 05:30:23;;;;;;;31.58;10.68;;;;;;;;;;5067625;28;20090;-57
2021/11/24 05:32:50;;;;;;;27.73;11.65;;;;;;;;;;5074162;28;20051;-57
2021/11/24 05:35:21;;;;;;;24.00;9.95;;;;;;;;;;5068760;28;20079;-57
2021/11/24 05:37:48;;;;;;;24.55;11.05;;;;;;;;;;5068045;28;20056;-57
2021/11/24 05:40:15;;;;;;;30.75;11.90;;;;;;;;;;5072874;28;20431;-57
2021/11/24 05:42:48;;;;;;;32.15;12.57;;;;;;;;;;5070689;28;20048;-57
2021/11/24 05:45:26;;;;;;;38.95;13.85;;;;;;;;;;5057522;28;20731;-56
2021/11/24 05:47:58;;;;;;;38.33;12.05;;;;;;;;;;5069251;28;20074;-57
2021/11/24 05:50:26;;;;;;;21.13;8.68;;;;;;;;;;5060378;28;20087;-57
2021/11/24 05:52:53;;;;;;;27.38;11.05;;;;;;;;;;5059536;28;20119;-57
2021/11/24 05:55:20;;;;;;;29.92;11.55;;;;;;;;;;5059712;28;20118;-57
2021/11/24 05:57:47;;;;;;;24.67;11.05;;;;;;;;;;5058252;28;20122;-57
2021/11/24 06:00:16;;;;;;;35.95;12.18;;;;;;;;;;5056429;28;20049;-56
2021/11/24 06:02:42;;;;;;;28.10;11.77;;;;;;;;;;5059758;28;20102;-57
2021/11/24 06:05:09;;;;;;;27.50;11.15;;;;;;;;;;5059798;28;20060;-57
2021/11/24 06:07:36;;;;;;;28.05;11.57;;;;;;;;;;5057945;28;20075;-57
2021/11/24 06:10:03;;;;;;;28.08;11.32;;;;;;;;;;5057992;28;20063;-60
2021/11/24 06:12:30;;;;;;;31.60;12.70;;;;;;;;;;5054924;28;20387;-56
2021/11/24 06:14:56;;;;;;;26.00;9.00;;;;;;;;;;5068124;28;20044;-56
2021/11/24 06:17:22;;;;;;;27.63;11.55;;;;;;;;;;5070431;28;20052;-56
2021/11/24 06:19:49;;;;;;;26.15;11.63;;;;;;;;;;5070886;28;20072;-56
2021/11/24 06:22:15;;;;;;;31.27;12.63;;;;;;;;;;5072257;28;20548;-56
2021/11/24 06:24:41;;;;;;;30.48;11.88;;;;;;;;;;5072495;28;20114;-56
2021/11/24 06:27:08;;;;;;;27.25;11.52;;;;;;;;;;5073550;28;20491;-56
2021/11/24 06:29:34;;;;;;;33.88;11.30;;;;;;;;;;5073476;28;20055;-56
2021/11/24 06:32:00;;;;;;;25.23;11.05;;;;;;;;;;5072438;28;20083;-56
2021/11/24 06:34:27;;;;;;;27.92;11.80;;;;;;;;;;5072318;28;20060;-56
2021/11/24 06:36:53;;;;;;;42.63;11.55;;;;;;;;;;5072307;28;20556;-56
2021/11/24 06:39:20;;;;;;;24.92;9.57;;;;;;;;;;5072401;28;20056;-55
2021/11/24 06:41:47;;;;;;;27.00;12.00;;;;;;;;;;5073078;28;20072;-56
2021/11/24 06:44:13;;;;;;;32.38;11.30;;;;;;;;;;5072310;28;20049;-55
2021/11/24 06:46:40;;;;;;;27.52;11.55;;;;;;;;;;5072167;28;20503;-56
2021/11/24 06:49:07;;;;;;;24.63;11.10;;;;;;;;;;5072150;28;20094;-56
2021/11/24 06:51:33;;;;;;;26.30;11.50;;;;;;;;;;5072600;28;20400;-56
2021/11/24 06:54:00;;;;;;;19.30;8.52;;;;;;;;;;5074088;28;20056;-55
2021/11/24 06:56:26;;;;;;;25.08;10.60;;;;;;;;;;5071160;28;20098;-56
2021/11/24 06:58:52;;;;;;;24.00;10.13;;;;;;;;;;5071608;28;20135;-56
2021/11/24 07:01:19;;;;;;;24.75;11.43;;;;;;;;;;5072042;28;20099;-56
2021/11/24 07:03:45;;;;;;;27.77;10.55;;;;;;;;;;5071832;28;20083;-56
2021/11/24 07:06:11;;;;;;;26.15;10.50;;;;;;;;;;5072425;28;20056;-56
2021/11/24 07:08:38;;;;;;;26.95;10.88;;;;;;;;;;5073200;28;20044;-55
2021/11/24 07:11:04;;;;;;;22.65;11.50;;;;;;;;;;5072075;28;20504;-56
2021/11/24 07:13:30;;;;;;;27.35;11.57;;;;;;;;;;5069752;28;20408;-56
2021/11/24 07:15:57;;;;;;;29.77;11.07;;;;;;;;;;5068067;28;20119;-56
2021/11/24 07:18:23;;;;;;;24.23;10.82;;;;;;;;;;5054420;28;20064;-56
2021/11/24 07:20:50;;;;;;;31.75;11.73;;;;;;;;;;5054216;28;20060;-57
2021/11/24 07:23:16;;;;;;;26.33;11.55;;;;;;;;;;5055700;28;20044;-56
2021/11/24 07:25:42;;;;;;;30.02;12.63;;;;;;;;;;5055437;28;20088;-56
2021/11/24 07:28:09;;;;;;;33.63;11.95;;;;;;;;;;5059613;28;20132;-56
2021/11/24 07:30:35;;;;;;;28.38;11.85;;;;;;;;;;5087510;28;20135;-57
2021/11/24 07:33:02;;;;;;;27.58;12.20;;;;;;;;;;5052967;28;20091;-56
2021/11/24 07:35:29;;;;;;;24.85;10.73;;;;;;;;;;5058612;28;20523;-56
2021/11/24 07:37:55;;;;;;;19.50;10.43;;;;;;;;;;5058789;28;20052;-56
2021/11/24 07:40:22;;;;;;;26.85;9.75;;;;;;;;;;5058819;28;20494;-56
2021/11/24 07:42:50;;;;;;;28.67;10.90;;;;;;;;;;5063826;28;20147;-57
2021/11/24 07:45:16;;;;;;;23.20;9.57;;;;;;;;;;5070385;28;20123;-57
2021/11/24 07:47:43;;;;;;;22.50;12.20;;;;;;;;;;5053982;28;20127;-57
2021/11/24 07:50:10;;;;;;;32.47;13.05;;;;;;;;;;5055606;28;20511;-57
2021/11/24 07:52:36;;;;;;;30.73;11.45;;;;;;;;;;5058940;28;20052;-57
2021/11/24 07:55:03;;;;;;;27.15;12.02;;;;;;;;;;5063255;28;20072;-57
2021/11/24 07:57:29;;;;;;;31.13;12.23;;;;;;;;;;5068151;28;20431;-57
2021/11/24 07:59:56;;;;;;;24.67;9.63;;;;;;;;;;5071968;28;20543;-57
2021/11/24 08:02:23;;;;;;;29.08;13.43;;;;;;;;;;5055501;28;20057;-57
2021/11/24 08:04:50;;;;;;;32.22;11.70;;;;;;;;;;5055256;28;20049;-57
2021/11/24 08:07:16;;;;;;;33.65;14.63;;;;;;;;;;5054284;28;20488;-58
2021/11/24 08:09:43;;;;;;;30.13;12.35;;;;;;;;;;5055138;28;20063;-58
2021/11/24 08:12:09;;;;;;;29.83;13.73;;;;;;;;;;5068875;28;20071;-58
2021/11/24 08:14:36;;;;;;;20.05;10.77;;;;;;;;;;5066004;28;20131;-58
2021/11/24 08:17:04;;;;;;;21.80;11.05;;;;;;;;;;5065148;28;20551;-58
2021/11/24 08:19:30;;;;;;;32.08;13.32;;;;;;;;;;5068331;28;20122;-58
2021/11/24 08:21:56;;;;;;;20.25;9.73;;;;;;;;;;5066189;28;20075;-58
2021/11/24 08:24:23;;;;;;;23.58;11.25;;;;;;;;;;5065630;28;20064;-58
2021/11/24 08:26:49;;;;;;;17.73;9.85;;;;;;;;;;5065177;28;20049;-58
2021/11/24 08:29:16;;;;;;;31.23;10.68;;;;;;;;;;5068522;28;20044;-59
2021/11/24 08:31:43;;;;;;;22.13;10.90;;;;;;;;;;5068432;28;20064;-58
2021/11/24 08:34:09;;;;;;;32.50;11.50;;;;;;;;;;5067121;28;20051;-60
2021/11/24 08:36:36;;;;;;;25.63;10.88;;;;;;;;;;5065386;28;20071;-59
2021/11/24 08:39:04;;;;;;;22.73;10.50;;;;;;;;;;5065502;28;20080;-59
2021/11/24 08:41:30;;;;;;;30.55;12.65;;;;;;;;;;5064352;28;20045;-58
2021/11/24 08:43:57;;;;;;;26.50;11.50;;;;;;;;;;5069669;28;20122;-59
2021/11/24 08:46:23;;;;;;;23.48;9.63;;;;;;;;;;5067466;28;20084;-58
2021/11/24 08:48:49;;;;;;;23.98;10.10;;;;;;;;;;5065398;28;20127;-58
2021/11/24 08:51:16;;;;;;;26.02;13.05;;;;;;;;;;5066054;28;20044;-58
2021/11/24 08:53:43;;;;;;;29.67;13.15;;;;;;;;;;5065169;28;20076;-59
2021/11/24 08:56:09;;;;;;;31.00;12.23;;;;;;;;;;5068767;28;20515;-59
2021/11/24 08:58:36;;;;;;;30.17;10.18;;;;;;;;;;5067798;28;20044;-59
2021/11/24 09:01:02;;;;;;;26.05;12.30;;;;;;;;;;5066115;28;20080;-59
2021/11/24 09:03:29;;;;;;;33.90;14.13;;;;;;;;;;5065409;28;20055;-59
2021/11/24 09:05:55;;;;;;;34.63;11.15;;;;;;;;;;5065136;28;20413;-59
2021/11/24 09:08:21;;;;;;;29.45;12.57;;;;;;;;;;5067221;28;20539;-58
2021/11/24 09:10:48;;;;;;;29.30;13.13;;;;;;;;;;5068593;28;20052;-58
2021/11/24 09:13:14;;;;;;;37.28;12.65;;;;;;;;;;5066316;28;20048;-58
2021/11/24 09:15:41;;;;;;;28.95;12.48;;;;;;;;;;5066470;28;20500;-57
2021/11/24 09:18:07;;;;;;;26.85;11.25;;;;;;;;;;5066201;28;20057;-57
2021/11/24 09:20:34;;;;;;;29.52;13.05;;;;;;;;;;5065140;28;20055;-57
2021/11/24 09:23:02;;;;;;;26.80;11.45;;;;;;;;;;5069830;28;20072;-57
2021/11/24 09:25:37;;;;;;;26.02;11.10;;;;;;;;;;5067082;28;20048;-57
2021/11/24 09:28:09;;;;;;;19.23;9.43;;;;;;;;;;5064679;28;20094;-57
2021/11/24 09:30:36;;;;;;;27.80;10.70;;;;;;;;;;5065487;28;20063;-57
2021/11/24 09:33:02;;;;;;;30.83;11.35;;;;;;;;;;5066518;28;20143;-58
2021/11/24 09:35:28;;;;;;;28.67;11.30;;;;;;;;;;5061815;28;20076;-57
2021/11/24 09:37:55;;;;;;;23.55;9.85;;;;;;;;;;5066911;28;20717;-55
2021/11/24 09:40:21;;;;;;;21.98;9.90;;;;;;;;;;5068998;28;20143;-56
2021/11/24 09:42:49;;;;;;;23.48;8.60;;;;;;;;;;5062473;28;20115;-55
2021/11/24 09:45:17;;;;;;;21.35;10.23;;;;;;;;;;5064418;28;20131;-55
2021/11/24 09:47:47;;;;;;;24.70;9.88;;;;;;;;;;5068049;28;20061;-56
2021/11/24 09:50:15;;;;;;;18.55;9.00;;;;;;;;;;5066601;28;20068;-54
2021/11/24 09:52:44;;;;;;;26.08;9.77;;;;;;;;;;5063971;28;20110;-54
2021/11/24 09:55:10;;;;;;;24.30;10.07;;;;;;;;;;5068073;28;20098;-55
2021/11/24 09:57:37;;;;;;;23.63;10.48;;;;;;;;;;5067027;28;20036;-55
2021/11/24 10:00:05;;;;;;;31.10;12.00;;;;;;;;;;5069175;28;20123;-57
2021/11/24 10:02:39;;;;;;;22.23;9.32;;;;;;;;;;5058505;28;20452;-55
2021/11/24 10:05:05;;;;;;;19.55;8.32;;;;;;;;;;5073425;28;20143;-55
2021/11/24 10:07:32;;;;;;;20.50;8.43;;;;;;;;;;5067919;28;20132;-56
2021/11/24 10:09:59;;;;;;;22.55;8.95;;;;;;;;;;5069379;28;20072;-55
2021/11/24 10:12:25;;;;;;;26.02;7.57;;;;;;;;;;5071729;28;20122;-55
2021/11/24 10:14:51;;;;;;;25.40;10.88;;;;;;;;;;5070847;28;20051;-55
2021/11/24 10:17:25;;;;;;;29.40;11.70;;;;;;;;;;5058286;28;20053;-55
2021/11/24 10:20:18;;;;;;;17.40;7.43;;;;;;;;;;5060828;28;20555;-55
2021/11/24 10:22:44;;;;;;;23.33;10.40;;;;;;;;;;5067395;28;20083;-55
2021/11/24 10:25:13;;;;;;;18.25;8.52;;;;;;;;;;5069090;28;20416;-55
2021/11/24 10:27:42;;;;;;;21.17;11.57;;;;;;;;;;5065410;28;20044;-54
2021/11/24 10:30:09;;;;;;;20.98;9.35;;;;;;;;;;5067587;28;20110;-55
2021/11/24 10:32:35;;;;;;;20.73;9.27;;;;;;;;;;5067930;28;20056;-57
2021/11/24 10:35:02;;;;;;;27.95;11.02;;;;;;;;;;5069780;28;20045;-57
2021/11/24 10:37:29;;;;;;;30.98;14.20;;;;;;;;;;5067837;28;20056;-57
2021/11/24 10:40:07;;;;;;;22.83;10.70;;;;;;;;;;5067288;28;20055;-58
2021/11/24 10:42:33;;;;;;;16.92;8.38;;;;;;;;;;5066662;28;20056;-59
2021/11/24 10:45:06;;;;;;;22.35;10.55;;;;;;;;;;5068017;28;20041;-58
2021/11/24 10:47:32;;;;;;;25.02;10.88;;;;;;;;;;5067297;28;20094;-57
2021/11/24 10:50:01;;;;;;;19.58;9.55;;;;;;;;;;5068784;28;20072;-57
2021/11/24 10:52:27;;;;;;;22.40;11.13;;;;;;;;;;5069563;28;20072;-59
2021/11/24 10:55:14;;;;;;;12.38;6.32;;;;;;;;;;5067542;28;20044;-57
2021/11/24 10:57:42;;;;;;;24.90;10.95;;;;;;;;;;5065079;28;20115;-57
2021/11/24 11:00:22;;;;;;;23.98;11.07;;;;;;;;;;5067186;28;20041;-57
2021/11/24 11:02:49;;;;;;;21.83;8.73;;;;;;;;;;5066663;28;20064;-57
2021/11/24 11:05:17;;;;;;;24.67;10.73;;;;;;;;;;5067954;28;20047;-57
2021/11/24 11:07:54;;;;;;;21.98;10.57;;;;;;;;;;5067179;28;20075;-58
2021/11/24 11:10:41;;;;;;;20.33;11.05;;;;;;;;;;5067133;28;20080;-57
2021/11/24 11:13:15;;;;;;;23.02;11.38;;;;;;;;;;5065680;28;20132;-57
2021/11/24 11:15:41;;;;;;;21.90;11.13;;;;;;;;;;5065963;28;20511;-57
2021/11/24 11:18:09;;;;;;;22.63;11.38;;;;;;;;;;5067524;28;20053;-57
2021/11/24 11:20:37;;;;;;;22.95;9.88;;;;;;;;;;5069909;28;20055;-56
2021/11/24 11:23:08;;;;;;;25.15;8.48;;;;;;;;;;5068894;28;20099;-56
2021/11/24 11:25:36;;;;;;;23.90;10.85;;;;;;;;;;5066824;28;20080;-57
2021/11/24 11:28:03;;;;;;;17.80;7.85;;;;;;;;;;5071615;28;20048;-62
2021/11/24 11:30:29;;;;;;;23.70;10.38;;;;;;;;;;5066182;28;20504;-59
2021/11/24 11:32:56;;;;;;;29.45;12.80;;;;;;;;;;5067022;28;20492;-60
2021/11/24 11:35:23;;;;;;;25.98;11.77;;;;;;;;;;5066151;28;20381;-60
2021/11/24 11:37:51;;;;;;;26.27;11.82;;;;;;;;;;5074301;28;20518;-57
2021/11/24 11:40:17;;;;;;;23.80;10.88;;;;;;;;;;5076568;28;20067;-58
2021/11/24 11:42:44;;;;;;;24.90;11.07;;;;;;;;;;5065935;28;20043;-58
2021/11/24 11:45:12;;;;;;;23.27;10.82;;;;;;;;;;5066429;28;20466;-58
2021/11/24 11:47:56;;;;;;;26.83;11.75;;;;;;;;;;5059272;28;20070;-57
2021/11/24 11:50:37;;;;;;;28.05;12.48;;;;;;;;;;5066153;28;20079;-58
2021/11/24 11:53:11;;;;;;;21.40;8.00;;;;;;;;;;5066717;28;20047;-58
2021/11/24 11:55:37;;;;;;;20.40;10.52;;;;;;;;;;5065511;28;20075;-58
2021/11/24 11:58:23;;;;;;;26.23;12.18;;;;;;;;;;5065802;28;20127;-57
2021/11/24 12:01:09;;;;;;;25.02;10.48;;;;;;;;;;5065803;28;20059;-57
2021/11/24 12:03:54;;;;;;;23.30;11.18;;;;;;;;;;5071257;28;20048;-56
2021/11/24 12:06:23;;;;;;;18.65;9.38;;;;;;;;;;5064596;28;20056;-57
2021/11/24 12:09:08;;;;;;;20.00;9.30;;;;;;;;;;5066224;28;20586;-56
2021/11/24 12:11:54;;;;;;;20.83;10.13;;;;;;;;;;5066451;28;20064;-57
2021/11/24 12:14:48;;;;;;;26.95;10.98;;;;;;;;;;5065453;28;20547;-57
2021/11/24 12:17:26;;;;;;;21.23;9.95;;;;;;;;;;5064342;28;20080;-57
2021/11/24 12:19:53;;;;;;;27.33;11.68;;;;;;;;;;5068270;28;20053;-56
2021/11/24 12:22:38;;;;;;;20.92;8.40;;;;;;;;;;5068784;28;20067;-56
2021/11/24 12:25:05;;;;;;;21.67;10.85;;;;;;;;;;5069761;28;20067;-57
2021/11/24 12:27:50;;;;;;;21.17;9.98;;;;;;;;;;5065034;28;20051;-56
2021/11/24 12:30:16;;;;;;;;;;;;;;;;;;5069217;28;20053;-57
2021/11/24 12:32:42;;;;;;;24.98;9.00;;;;;;;;;;5069646;28;20276;-55
2021/11/24 12:35:17;;;;;;;24.40;10.13;;;;;;;;;;5065061;28;20127;-55
2021/11/24 12:37:43;;;;;;;;;;;;;;;;;;5065268;28;20083;-55
2021/11/24 12:40:12;;;;;;;26.20;9.50;;;;;;;;;;5059171;28;19927;-55
2021/11/24 12:42:38;;;;;;;25.52;12.02;;;;;;;;;;5061425;28;20048;-54
2021/11/24 12:45:05;;;;;;;20.15;9.55;;;;;;;;;;5068755;28;20079;-55
2021/11/24 12:47:31;;;;;;;27.30;9.55;;;;;;;;;;5060545;28;20055;-55
2021/11/24 12:50:04;;;;;;;19.38;10.02;;;;;;;;;;5060637;28;20072;-56
2021/11/24 12:52:31;;;;;;;30.35;11.27;;;;;;;;;;5066907;28;20622;-55
2021/11/24 12:55:05;;;;;;;21.30;8.55;;;;;;;;;;5069260;28;20044;-57
2021/11/24 12:57:31;;;;;;;23.50;12.10;;;;;;;;;;5063903;28;20037;-56
2021/11/24 12:59:57;;;;;;;32.53;12.88;;;;;;;;;;5064197;28;20075;-56
2021/11/24 13:02:27;;;;;;;28.30;12.60;;;;;;;;;;5065694;28;20530;-55
2021/11/24 13:04:53;;;;;;;30.65;11.80;;;;;;;;;;5064777;28;20060;-56
2021/11/24 13:07:21;;;;;;;29.92;10.50;;;;;;;;;;5061566;28;20499;-56
2021/11/24 13:09:48;;;;;;;24.58;10.93;;;;;;;;;;5067085;28;20086;-56
2021/11/24 13:12:16;;;;;;;29.52;13.05;;;;;;;;;;5062746;28;20068;-55
2021/11/24 13:14:47;;;;;;;26.45;12.13;;;;;;;;;;5063517;28;20052;-56
2021/11/24 13:17:19;;;;;;;26.27;12.25;;;;;;;;;;5064482;28;20063;-58
2021/11/24 13:19:48;;;;;;;22.98;10.20;;;;;;;;;;5065057;28;20087;-58
2021/11/24 13:22:33;;;;;;;30.23;13.00;;;;;;;;;;5069262;28;20119;-57
2021/11/24 13:25:05;;;;;;;29.42;13.00;;;;;;;;;;5065658;28;20080;-57
2021/11/24 13:27:37;;;;;;;27.60;12.30;;;;;;;;;;5065279;28;20049;-57
2021/11/24 13:30:04;;;;;;;30.85;12.65;;;;;;;;;;5070005;28;20079;-57
2021/11/24 13:32:30;;;;;;;24.75;11.63;;;;;;;;;;5072714;28;20125;-56
2021/11/24 13:34:57;;;;;;;32.83;13.52;;;;;;;;;;5069543;28;20036;-57
2021/11/24 13:37:29;;;;;;;28.10;13.48;;;;;;;;;;5070393;28;20073;-57
2021/11/24 13:39:56;;;;;;;25.80;12.00;;;;;;;;;;5068251;28;20048;-56
2021/11/24 13:42:23;;;;;;;30.10;13.32;;;;;;;;;;5068385;28;20409;-56
2021/11/24 13:44:53;;;;;;;30.02;12.63;;;;;;;;;;5069737;28;20079;-57
2021/11/24 13:47:27;;;;;;;27.90;13.18;;;;;;;;;;5073763;28;20060;-57
2021/11/24 13:49:56;;;;;;;36.63;14.88;;;;;;;;;;5068332;28;20428;-56
2021/11/24 13:52:23;;;;;;;31.33;13.82;;;;;;;;;;5069384;28;20044;-56
2021/11/24 13:54:52;;;;;;;31.85;14.65;;;;;;;;;;5068601;28;20480;-56
2021/11/24 13:57:19;;;;;;;39.50;15.95;;;;;;;;;;5069169;28;20045;-56
2021/11/24 13:59:46;;;;;;;31.58;12.98;;;;;;;;;;5066486;28;20059;-56
2021/11/24 14:02:14;;;;;;;32.15;14.80;;;;;;;;;;5070632;28;20040;-56
2021/11/24 14:04:42;;;;;;;30.27;13.77;;;;;;;;;;5071669;28;20500;-56
2021/11/24 14:07:09;;;;;;;31.52;13.52;;;;;;;;;;5069303;28;20052;-57
2021/11/24 14:09:55;;;;;;;42.67;15.93;;;;;;;;;;5066046;28;20051;-57
2021/11/24 14:12:26;;;;;;;34.30;14.73;;;;;;;;;;5068617;28;20036;-57
2021/11/24 14:15:13;;;;;;;35.33;14.52;;;;;;;;;;5068502;28;20052;-57
2021/11/24 14:17:41;;;;;;;31.58;14.00;;;;;;;;;;5067294;28;20076;-57
2021/11/24 14:20:08;;;;;;;38.70;14.55;;;;;;;;;;5072080;28;20087;-56
2021/11/24 14:22:34;;;;;;;38.42;18.77;;;;;;;;;;5054608;28;20040;-56
2021/11/24 14:25:01;;;;;;;40.00;15.93;;;;;;;;;;5069463;28;20519;-56